sensor_id;sensor_type;location;lat;lon;timestamp;pressure;altitude;pressure_sealevel;temperature;humidity
74045;BME280;62389;51.412;5.436;2023-12-20T00:01:23;101536.16;;;5.40;100.00
74045;BME280;62389;51.412;5.436;2023-12-20T00:03:48;101549.19;;;5.34;100.00
74045;BME280;62389;51.412;5.436;2023-12-20T00:06:14;101541.47;;;5.29;100.00
74045;BME280;62389;51.412;5.436;2023-12-20T00:08:39;101540.63;;;5.27;100.00
74045;BME280;62389;51.412;5.436;2023-12-20T00:11:05;101540.66;;;5.23;100.00
74045;BME280;62389;51.412;5.436;2023-12-20T00:13:30;101545.88;;;5.19;100.00
74045;BME280;62389;51.412;5.436;2023-12-20T00:15:56;101558.00;;;5.17;100.00
74045;BME280;62389;51.412;5.436;2023-12-20T00:18:21;101556.34;;;5.10;100.00
74045;BME280;62389;51.412;5.436;2023-12-20T00:20:46;101550.31;;;5.07;100.00
74045;BME280;62389;51.412;5.436;2023-12-20T00:23:12;101546.88;;;5.06;100.00
74045;BME280;62389;51.412;5.436;2023-12-20T00:25:37;101557.28;;;5.02;100.00
74045;BME280;62389;51.412;5.436;2023-12-20T00:28:03;101552.97;;;5.01;100.00
74045;BME280;62389;51.412;5.436;2023-12-20T00:30:28;101543.50;;;4.97;100.00
74045;BME280;62389;51.412;5.436;2023-12-20T00:32:54;101550.44;;;4.98;100.00
74045;BME280;62389;51.412;5.436;2023-12-20T00:35:19;101547.81;;;4.96;100.00
74045;BME280;62389;51.412;5.436;2023-12-20T00:37:44;101544.41;;;4.94;100.00
74045;BME280;62389;51.412;5.436;2023-12-20T00:40:10;101547.88;;;4.90;100.00
74045;BME280;62389;51.412;5.436;2023-12-20T00:42:36;101552.22;;;4.86;100.00
74045;BME280;62389;51.412;5.436;2023-12-20T00:45:02;101548.81;;;4.84;100.00
74045;BME280;62389;51.412;5.436;2023-12-20T00:47:30;101535.00;;;4.81;100.00
74045;BME280;62389;51.412;5.436;2023-12-20T00:49:55;101535.88;;;4.80;100.00
74045;BME280;62389;51.412;5.436;2023-12-20T00:52:21;101534.16;;;4.79;100.00
74045;BME280;62389;51.412;5.436;2023-12-20T00:54:48;101534.16;;;4.79;100.00
74045;BME280;62389;51.412;5.436;2023-12-20T00:57:13;101534.16;;;4.79;100.00
74045;BME280;62389;51.412;5.436;2023-12-20T00:59:39;101534.19;;;4.77;100.00
74045;BME280;62389;51.412;5.436;2023-12-20T01:02:04;101533.34;;;4.74;100.00
74045;BME280;62389;51.412;5.436;2023-12-20T01:04:29;101532.47;;;4.72;100.00
74045;BME280;62389;51.412;5.436;2023-12-20T01:06:55;101535.16;;;4.67;100.00
74045;BME280;62389;51.412;5.436;2023-12-20T01:09:20;101541.19;;;4.67;100.00
74045;BME280;62389;51.412;5.436;2023-12-20T01:11:48;101538.59;;;4.64;100.00
74045;BME280;62389;51.412;5.436;2023-12-20T01:14:14;101537.78;;;4.62;100.00
74045;BME280;62389;51.412;5.436;2023-12-20T01:16:39;101549.00;;;4.60;100.00
74045;BME280;62389;51.412;5.436;2023-12-20T01:19:04;101542.97;;;4.59;100.00
74045;BME280;62389;51.412;5.436;2023-12-20T01:21:30;101552.50;;;4.57;100.00
74045;BME280;62389;51.412;5.436;2023-12-20T01:23:55;101564.53;;;4.60;100.00
74045;BME280;62389;51.412;5.436;2023-12-20T01:26:20;101561.94;;;4.61;100.00
74045;BME280;62389;51.412;5.436;2023-12-20T01:28:47;101564.53;;;4.63;100.00
74045;BME280;62389;51.412;5.436;2023-12-20T01:31:12;101561.91;;;4.64;100.00
74045;BME280;62389;51.412;5.436;2023-12-20T01:33:38;101553.28;;;4.67;100.00
74045;BME280;62389;51.412;5.436;2023-12-20T01:36:04;101556.72;;;4.69;100.00
74045;BME280;62389;51.412;5.436;2023-12-20T01:38:29;101554.09;;;4.71;100.00
74045;BME280;62389;51.412;5.436;2023-12-20T01:40:54;101564.47;;;4.72;100.00
74045;BME280;62389;51.412;5.436;2023-12-20T01:43:20;101559.25;;;4.74;100.00
74045;BME280;62389;51.412;5.436;2023-12-20T01:45:46;101552.34;;;4.71;100.00
74045;BME280;62389;51.412;5.436;2023-12-20T01:48:12;101551.53;;;4.67;100.00
74045;BME280;62389;51.412;5.436;2023-12-20T01:50:37;101553.25;;;4.68;100.00
74045;BME280;62389;51.412;5.436;2023-12-20T01:53:03;101550.66;;;4.70;100.00
74045;BME280;62389;51.412;5.436;2023-12-20T01:55:32;101554.09;;;4.71;100.00
74045;BME280;62389;51.412;5.436;2023-12-20T01:58:00;101552.31;;;4.76;100.00
74045;BME280;62389;51.412;5.436;2023-12-20T02:00:27;101543.66;;;4.77;100.00
74045;BME280;62389;51.412;5.436;2023-12-20T02:02:54;101541.97;;;4.77;100.00
74045;BME280;62389;51.412;5.436;2023-12-20T02:05:22;101543.66;;;4.80;100.00
74045;BME280;62389;51.412;5.436;2023-12-20T02:07:49;101541.06;;;4.80;100.00
74045;BME280;62389;51.412;5.436;2023-12-20T02:10:15;101544.50;;;4.82;100.00
74045;BME280;62389;51.412;5.436;2023-12-20T02:12:41;101546.22;;;4.83;100.00
74045;BME280;62389;51.412;5.436;2023-12-20T02:15:06;101541.91;;;4.82;100.00
74045;BME280;62389;51.412;5.436;2023-12-20T02:17:32;101549.69;;;4.82;100.00
74045;BME280;62389;51.412;5.436;2023-12-20T02:19:58;101555.75;;;4.81;100.00
74045;BME280;62389;51.412;5.436;2023-12-20T02:22:23;101564.38;;;4.80;100.00
74045;BME280;62389;51.412;5.436;2023-12-20T02:24:49;101560.09;;;4.79;100.00
74045;BME280;62389;51.412;5.436;2023-12-20T02:27:15;101546.25;;;4.77;100.00
74045;BME280;62389;51.412;5.436;2023-12-20T02:29:42;101540.22;;;4.78;100.00
74045;BME280;62389;51.412;5.436;2023-12-20T02:32:08;101539.38;;;4.76;100.00
74045;BME280;62389;51.412;5.436;2023-12-20T02:34:33;101545.44;;;4.75;100.00
74045;BME280;62389;51.412;5.436;2023-12-20T02:36:58;101530.75;;;4.74;100.00
74045;BME280;62389;51.412;5.436;2023-12-20T02:39:24;101551.50;;;4.74;100.00
74045;BME280;62389;51.412;5.436;2023-12-20T02:41:49;101547.19;;;4.73;100.00
74045;BME280;62389;51.412;5.436;2023-12-20T02:44:14;101553.25;;;4.68;100.00
74045;BME280;62389;51.412;5.436;2023-12-20T02:46:40;101552.41;;;4.68;100.00
74045;BME280;62389;51.412;5.436;2023-12-20T02:49:06;101552.38;;;4.66;100.00
74045;BME280;62389;51.412;5.436;2023-12-20T02:51:31;101559.31;;;4.67;100.00
74045;BME280;62389;51.412;5.436;2023-12-20T02:53:57;101544.63;;;4.66;100.00
74045;BME280;62389;51.412;5.436;2023-12-20T02:56:22;101552.38;;;4.66;100.00
74045;BME280;62389;51.412;5.436;2023-12-20T02:58:47;101555.88;;;4.67;100.00
74045;BME280;62389;51.412;5.436;2023-12-20T03:01:13;101554.97;;;4.66;100.00
74045;BME280;62389;51.412;5.436;2023-12-20T03:03:39;101553.28;;;4.65;100.00
74045;BME280;62389;51.412;5.436;2023-12-20T03:06:04;101560.16;;;4.66;100.00
74045;BME280;62389;51.412;5.436;2023-12-20T03:08:29;101555.84;;;4.68;100.00
74045;BME280;62389;51.412;5.436;2023-12-20T03:10:55;101551.53;;;4.67;100.00
74045;BME280;62389;51.412;5.436;2023-12-20T03:13:20;101550.69;;;4.64;100.00
74045;BME280;62389;51.412;5.436;2023-12-20T03:15:45;101542.06;;;4.63;100.00
74045;BME280;62389;51.412;5.436;2023-12-20T03:18:11;101535.16;;;4.61;100.00
74045;BME280;62389;51.412;5.436;2023-12-20T03:20:37;101539.50;;;4.60;100.00
74045;BME280;62389;51.412;5.436;2023-12-20T03:23:03;101534.31;;;4.60;100.00
74045;BME280;62389;51.412;5.436;2023-12-20T03:25:28;101526.56;;;4.59;100.00
74045;BME280;62389;51.412;5.436;2023-12-20T03:27:54;101541.25;;;4.58;100.00
74045;BME280;62389;51.412;5.436;2023-12-20T03:30:19;101534.34;;;4.57;100.00
74045;BME280;62389;51.412;5.436;2023-12-20T03:32:45;101531.75;;;4.57;100.00
74045;BME280;62389;51.412;5.436;2023-12-20T03:35:11;101534.34;;;4.57;100.00
74045;BME280;62389;51.412;5.436;2023-12-20T03:37:36;101533.47;;;4.58;100.00
74045;BME280;62389;51.412;5.436;2023-12-20T03:40:02;101538.63;;;4.60;100.00
74045;BME280;62389;51.412;5.436;2023-12-20T03:42:27;101536.88;;;4.63;100.00
74045;BME280;62389;51.412;5.436;2023-12-20T03:44:53;101528.25;;;4.64;100.00
74045;BME280;62389;51.412;5.436;2023-12-20T03:47:18;101532.53;;;4.68;100.00
74045;BME280;62389;51.412;5.436;2023-12-20T03:49:43;101523.88;;;4.70;100.00
74045;BME280;62389;51.412;5.436;2023-12-20T03:52:09;101521.25;;;4.74;100.00
74045;BME280;62389;51.412;5.436;2023-12-20T03:54:38;101515.22;;;4.74;100.00
74045;BME280;62389;51.412;5.436;2023-12-20T03:57:03;101517.81;;;4.74;100.00
74045;BME280;62389;51.412;5.436;2023-12-20T03:59:29;101517.81;;;4.74;100.00
74045;BME280;62389;51.412;5.436;2023-12-20T04:01:55;101523.81;;;4.76;100.00
74045;BME280;62389;51.412;5.436;2023-12-20T04:04:20;101520.34;;;4.77;100.00
74045;BME280;62389;51.412;5.436;2023-12-20T04:06:45;101529.84;;;4.79;100.00
74045;BME280;62389;51.412;5.436;2023-12-20T04:09:11;101522.03;;;4.81;100.00
74045;BME280;62389;51.412;5.436;2023-12-20T04:11:37;101522.91;;;4.81;100.00
74045;BME280;62389;51.412;5.436;2023-12-20T04:14:02;101520.31;;;4.83;100.00
74045;BME280;62389;51.412;5.436;2023-12-20T04:16:28;101522.03;;;4.81;100.00
74045;BME280;62389;51.412;5.436;2023-12-20T04:18:53;101522.03;;;4.81;100.00
74045;BME280;62389;51.412;5.436;2023-12-20T04:21:18;101530.69;;;4.81;100.00
74045;BME280;62389;51.412;5.436;2023-12-20T04:23:44;101534.09;;;4.85;100.00
74045;BME280;62389;51.412;5.436;2023-12-20T04:26:10;101532.34;;;4.87;100.00
74045;BME280;62389;51.412;5.436;2023-12-20T04:28:35;101524.56;;;4.87;100.00
74045;BME280;62389;51.412;5.436;2023-12-20T04:31:00;101528.00;;;4.90;100.00
74045;BME280;62389;51.412;5.436;2023-12-20T04:33:26;101533.19;;;4.90;100.00
74045;BME280;62389;51.412;5.436;2023-12-20T04:35:51;101534.06;;;4.92;100.00
74045;BME280;62389;51.412;5.436;2023-12-20T04:38:16;101535.75;;;4.93;100.00
74045;BME280;62389;51.412;5.436;2023-12-20T04:40:42;101534.88;;;4.96;100.00
74045;BME280;62389;51.412;5.436;2023-12-20T04:43:08;101533.13;;;4.98;100.00
74045;BME280;62389;51.412;5.436;2023-12-20T04:45:34;101538.28;;;5.01;100.00
74045;BME280;62389;51.412;5.436;2023-12-20T04:48:00;101525.31;;;5.01;100.00
74045;BME280;62389;51.412;5.436;2023-12-20T04:50:26;101533.09;;;5.03;100.00
74045;BME280;62389;51.412;5.436;2023-12-20T04:52:51;101540.84;;;5.04;100.00
74045;BME280;62389;51.412;5.436;2023-12-20T04:55:17;101533.06;;;5.04;100.00
74045;BME280;62389;51.412;5.436;2023-12-20T04:57:42;101533.94;;;5.02;100.00
74045;BME280;62389;51.412;5.436;2023-12-20T05:00:08;101531.34;;;5.05;100.00
74045;BME280;62389;51.412;5.436;2023-12-20T05:02:35;101533.91;;;5.05;100.00
74045;BME280;62389;51.412;5.436;2023-12-20T05:05:00;101531.31;;;5.06;100.00
74045;BME280;62389;51.412;5.436;2023-12-20T05:07:26;101522.69;;;5.07;100.00
74045;BME280;62389;51.412;5.436;2023-12-20T05:09:51;101515.75;;;5.08;100.00
74045;BME280;62389;51.412;5.436;2023-12-20T05:12:16;101517.50;;;5.07;100.00
74045;BME280;62389;51.412;5.436;2023-12-20T05:14:42;101522.63;;;5.10;100.00
74045;BME280;62389;51.412;5.436;2023-12-20T05:17:07;101510.50;;;5.11;100.00
74045;BME280;62389;51.412;5.436;2023-12-20T05:19:32;101506.19;;;5.11;100.00
74045;BME280;62389;51.412;5.436;2023-12-20T05:22:00;101510.50;;;5.11;100.00
74045;BME280;62389;51.412;5.436;2023-12-20T05:24:25;101503.59;;;5.13;100.00
74045;BME280;62389;51.412;5.436;2023-12-20T05:26:51;101504.44;;;5.15;100.00
74045;BME280;62389;51.412;5.436;2023-12-20T05:29:16;101500.06;;;5.17;100.00
74045;BME280;62389;51.412;5.436;2023-12-20T05:31:42;101507.84;;;5.18;100.00
74045;BME280;62389;51.412;5.436;2023-12-20T05:34:07;101506.94;;;5.21;100.00
74045;BME280;62389;51.412;5.436;2023-12-20T05:36:33;101501.75;;;5.21;100.00
74045;BME280;62389;51.412;5.436;2023-12-20T05:38:58;101509.56;;;5.23;100.00
74045;BME280;62389;51.412;5.436;2023-12-20T05:41:23;101519.03;;;5.24;100.00
74045;BME280;62389;51.412;5.436;2023-12-20T05:43:49;101509.53;;;5.24;100.00
74045;BME280;62389;51.412;5.436;2023-12-20T05:46:14;101510.38;;;5.25;100.00
74045;BME280;62389;51.412;5.436;2023-12-20T05:48:39;101511.25;;;5.24;100.00
74045;BME280;62389;51.412;5.436;2023-12-20T05:51:05;101510.34;;;5.26;100.00
74045;BME280;62389;51.412;5.436;2023-12-20T05:53:30;101521.59;;;5.28;100.00
74045;BME280;62389;51.412;5.436;2023-12-20T05:55:55;101518.13;;;5.28;100.00
74045;BME280;62389;51.412;5.436;2023-12-20T05:58:21;101527.66;;;5.27;100.00
74045;BME280;62389;51.412;5.436;2023-12-20T06:00:46;101517.31;;;5.24;100.00
74045;BME280;62389;51.412;5.436;2023-12-20T06:03:12;101523.38;;;5.22;100.00
74045;BME280;62389;51.412;5.436;2023-12-20T06:05:37;101520.81;;;5.20;100.00
74045;BME280;62389;51.412;5.436;2023-12-20T06:08:02;101534.69;;;5.17;100.00
74045;BME280;62389;51.412;5.436;2023-12-20T06:10:29;101545.94;;;5.13;100.00
74045;BME280;62389;51.412;5.436;2023-12-20T06:12:54;101541.63;;;5.11;100.00
74045;BME280;62389;51.412;5.436;2023-12-20T06:15:21;101539.94;;;5.07;100.00
74045;BME280;62389;51.412;5.436;2023-12-20T06:17:46;101537.41;;;5.04;100.00
74045;BME280;62389;51.412;5.436;2023-12-20T06:20:12;101534.84;;;4.99;100.00
74045;BME280;62389;51.412;5.436;2023-12-20T06:22:38;101525.41;;;4.92;100.00
74045;BME280;62389;51.412;5.436;2023-12-20T06:25:04;101528.06;;;4.87;100.00
74045;BME280;62389;51.412;5.436;2023-12-20T06:27:30;101539.31;;;4.82;100.00
74045;BME280;62389;51.412;5.436;2023-12-20T06:29:57;101542.78;;;4.81;100.00
74045;BME280;62389;51.412;5.436;2023-12-20T06:32:22;101538.50;;;4.77;100.00
74045;BME280;62389;51.412;5.436;2023-12-20T06:34:48;101526.44;;;4.73;100.00
74045;BME280;62389;51.412;5.436;2023-12-20T06:37:14;101531.63;;;4.71;100.00
74045;BME280;62389;51.412;5.436;2023-12-20T06:39:40;101538.53;;;4.71;100.00
74045;BME280;62389;51.412;5.436;2023-12-20T06:42:06;101530.78;;;4.69;100.00
74045;BME280;62389;51.412;5.436;2023-12-20T06:44:31;101523.88;;;4.66;100.00
74045;BME280;62389;51.412;5.436;2023-12-20T06:46:57;101532.56;;;4.67;100.00
74045;BME280;62389;51.412;5.436;2023-12-20T06:49:22;101535.09;;;4.70;100.00
74045;BME280;62389;51.412;5.436;2023-12-20T06:51:47;101530.81;;;4.67;100.00
74045;BME280;62389;51.412;5.436;2023-12-20T06:54:13;101535.13;;;4.68;100.00
74045;BME280;62389;51.412;5.436;2023-12-20T06:56:38;101527.34;;;4.68;100.00
74045;BME280;62389;51.412;5.436;2023-12-20T06:59:04;101527.34;;;4.68;100.00
74045;BME280;62389;51.412;5.436;2023-12-20T07:01:29;101529.06;;;4.70;100.00
74045;BME280;62389;51.412;5.436;2023-12-20T07:03:54;101527.31;;;4.70;100.00
74045;BME280;62389;51.412;5.436;2023-12-20T07:06:19;101523.00;;;4.72;100.00
74045;BME280;62389;51.412;5.436;2023-12-20T07:08:45;101528.19;;;4.72;100.00
74045;BME280;62389;51.412;5.436;2023-12-20T07:11:11;101519.53;;;4.73;100.00
74045;BME280;62389;51.412;5.436;2023-12-20T07:13:36;101526.44;;;4.73;100.00
74045;BME280;62389;51.412;5.436;2023-12-20T07:16:02;101519.56;;;4.70;100.00
74045;BME280;62389;51.412;5.436;2023-12-20T07:18:28;101515.22;;;4.72;100.00
74045;BME280;62389;51.412;5.436;2023-12-20T07:20:53;101512.63;;;4.71;100.00
74045;BME280;62389;51.412;5.436;2023-12-20T07:23:19;101511.78;;;4.68;100.00
74045;BME280;62389;51.412;5.436;2023-12-20T07:25:45;101510.06;;;4.69;100.00
74045;BME280;62389;51.412;5.436;2023-12-20T07:28:10;101509.22;;;4.68;100.00
74045;BME280;62389;51.412;5.436;2023-12-20T07:30:36;101517.84;;;4.69;100.00
74045;BME280;62389;51.412;5.436;2023-12-20T07:33:01;101523.88;;;4.70;100.00
74045;BME280;62389;51.412;5.436;2023-12-20T07:35:27;101525.59;;;4.71;100.00
74045;BME280;62389;51.412;5.436;2023-12-20T07:37:53;101529.03;;;4.73;100.00
74045;BME280;62389;51.412;5.436;2023-12-20T07:40:18;101528.16;;;4.74;100.00
74045;BME280;62389;51.412;5.436;2023-12-20T07:42:44;101524.66;;;4.76;100.00
74045;BME280;62389;51.412;5.436;2023-12-20T07:45:09;101526.41;;;4.77;100.00
74045;BME280;62389;51.412;5.436;2023-12-20T07:47:35;101525.50;;;4.80;100.00
74045;BME280;62389;51.412;5.436;2023-12-20T07:50:01;101525.50;;;4.83;100.00
74045;BME280;62389;51.412;5.436;2023-12-20T07:52:29;101526.34;;;4.83;100.00
74045;BME280;62389;51.412;5.436;2023-12-20T07:54:54;101526.31;;;4.88;100.00
74045;BME280;62389;51.412;5.436;2023-12-20T07:57:20;101527.13;;;4.91;100.00
74045;BME280;62389;51.412;5.436;2023-12-20T07:59:46;101521.94;;;4.94;100.00
74045;BME280;62389;51.412;5.436;2023-12-20T08:02:11;101535.75;;;4.95;100.00
74045;BME280;62389;51.412;5.436;2023-12-20T08:04:36;101533.13;;;4.98;100.00
74045;BME280;62389;51.412;5.436;2023-12-20T08:07:03;101534.84;;;4.99;100.00
74045;BME280;62389;51.412;5.436;2023-12-20T08:09:28;101533.94;;;5.02;100.00
74045;BME280;62389;51.412;5.436;2023-12-20T08:11:54;101540.00;;;5.01;100.00
74045;BME280;62389;51.412;5.436;2023-12-20T08:14:19;101541.72;;;5.02;100.00
74045;BME280;62389;51.412;5.436;2023-12-20T08:16:44;101537.41;;;5.02;100.00
74045;BME280;62389;51.412;5.436;2023-12-20T08:19:10;101538.28;;;5.01;100.00
74045;BME280;62389;51.412;5.436;2023-12-20T08:21:35;101540.84;;;5.04;100.00
74045;BME280;62389;51.412;5.436;2023-12-20T08:24:00;101535.66;;;5.04;100.00
74045;BME280;62389;51.412;5.436;2023-12-20T08:26:26;101544.28;;;5.05;100.00
74045;BME280;62389;51.412;5.436;2023-12-20T08:28:52;101546.88;;;5.05;100.00
74045;BME280;62389;51.412;5.436;2023-12-20T08:31:18;101553.78;;;5.07;100.00
74045;BME280;62389;51.412;5.436;2023-12-20T08:33:44;101552.00;;;5.11;100.00
74045;BME280;62389;51.412;5.436;2023-12-20T08:36:10;101552.00;;;5.14;100.00
74045;BME280;62389;51.412;5.436;2023-12-20T08:38:35;101552.81;;;5.16;100.00
74045;BME280;62389;51.412;5.436;2023-12-20T08:41:01;101557.13;;;5.17;100.00
74045;BME280;62389;51.412;5.436;2023-12-20T08:43:28;101561.47;;;5.16;100.00
74045;BME280;62389;51.412;5.436;2023-12-20T08:45:53;101548.50;;;5.18;100.00
74045;BME280;62389;51.412;5.436;2023-12-20T08:48:19;101549.38;;;5.15;100.00
74045;BME280;62389;51.412;5.436;2023-12-20T08:50:44;101536.41;;;5.15;100.00
74045;BME280;62389;51.412;5.436;2023-12-20T08:53:10;101530.41;;;5.10;100.00
74045;BME280;62389;51.412;5.436;2023-12-20T08:55:35;101526.13;;;5.06;100.00
74045;BME280;62389;51.412;5.436;2023-12-20T08:58:00;101529.56;;;5.10;100.00
74045;BME280;62389;51.412;5.436;2023-12-20T09:00:26;101519.97;;;5.16;100.00
74045;BME280;62389;51.412;5.436;2023-12-20T09:02:53;101512.16;;;5.23;100.00
74045;BME280;62389;51.412;5.436;2023-12-20T09:05:19;101515.53;;;5.28;100.00
74045;BME280;62389;51.412;5.436;2023-12-20T09:07:44;101515.53;;;5.29;100.00
74045;BME280;62389;51.412;5.436;2023-12-20T09:10:10;101519.81;;;5.30;100.00
74045;BME280;62389;51.412;5.436;2023-12-20T09:12:35;101518.94;;;5.31;100.00
74045;BME280;62389;51.412;5.436;2023-12-20T09:15:03;101522.38;;;5.32;100.00
74045;BME280;62389;51.412;5.436;2023-12-20T09:17:28;101530.16;;;5.35;100.00
74045;BME280;62389;51.412;5.436;2023-12-20T09:19:54;101525.78;;;5.37;100.00
74045;BME280;62389;51.412;5.436;2023-12-20T09:22:19;101518.91;;;5.36;100.00
74045;BME280;62389;51.412;5.436;2023-12-20T09:24:44;101530.97;;;5.40;100.00
74045;BME280;62389;51.412;5.436;2023-12-20T09:27:10;101529.19;;;5.43;100.00
74045;BME280;62389;51.412;5.436;2023-12-20T09:29:35;101539.56;;;5.42;100.00
74045;BME280;62389;51.412;5.436;2023-12-20T09:32:01;101527.50;;;5.42;100.00
74045;BME280;62389;51.412;5.436;2023-12-20T09:34:26;101527.47;;;5.44;100.00
74045;BME280;62389;51.412;5.436;2023-12-20T09:36:52;101534.41;;;5.40;100.00
74045;BME280;62389;51.412;5.436;2023-12-20T09:39:18;101525.75;;;5.41;100.00
74045;BME280;62389;51.412;5.436;2023-12-20T09:41:45;101525.75;;;5.43;100.00
74045;BME280;62389;51.412;5.436;2023-12-20T09:44:15;101525.75;;;5.41;100.00
74045;BME280;62389;51.412;5.436;2023-12-20T09:46:44;101527.50;;;5.39;100.00
74045;BME280;62389;51.412;5.436;2023-12-20T09:49:11;101521.41;;;5.42;100.00
74045;BME280;62389;51.412;5.436;2023-12-20T09:51:37;101520.56;;;5.41;100.00
74045;BME280;62389;51.412;5.436;2023-12-20T09:54:03;101520.56;;;5.43;100.00
74045;BME280;62389;51.412;5.436;2023-12-20T09:56:30;101522.28;;;5.44;100.00
74045;BME280;62389;51.412;5.436;2023-12-20T09:58:56;101519.63;;;5.47;100.00
74045;BME280;62389;51.412;5.436;2023-12-20T10:01:22;101514.44;;;5.47;100.00
74045;BME280;62389;51.412;5.436;2023-12-20T10:03:50;101514.44;;;5.47;100.00
74045;BME280;62389;51.412;5.436;2023-12-20T10:06:16;101521.38;;;5.48;100.00
74045;BME280;62389;51.412;5.436;2023-12-20T10:08:42;101514.44;;;5.47;100.00
74045;BME280;62389;51.412;5.436;2023-12-20T10:11:07;101516.19;;;5.48;100.00
74045;BME280;62389;51.412;5.436;2023-12-20T10:13:33;101519.59;;;5.50;100.00
74045;BME280;62389;51.412;5.436;2023-12-20T10:15:59;101510.94;;;5.51;100.00
74045;BME280;62389;51.412;5.436;2023-12-20T10:18:24;101506.59;;;5.52;100.00
74045;BME280;62389;51.412;5.436;2023-12-20T10:20:49;101514.38;;;5.53;100.00
74045;BME280;62389;51.412;5.436;2023-12-20T10:23:15;101498.81;;;5.53;100.00
74045;BME280;62389;51.412;5.436;2023-12-20T10:25:41;101506.56;;;5.55;100.00
74045;BME280;62389;51.412;5.436;2023-12-20T10:28:16;101510.06;;;5.54;100.00
74045;BME280;62389;51.412;5.436;2023-12-20T10:30:48;101515.25;;;5.54;100.00
74045;BME280;62389;51.412;5.436;2023-12-20T10:33:13;101526.47;;;5.54;100.00
74045;BME280;62389;51.412;5.436;2023-12-20T10:35:39;101524.72;;;5.56;100.00
74045;BME280;62389;51.412;5.436;2023-12-20T10:38:05;101526.44;;;5.57;100.00
74045;BME280;62389;51.412;5.436;2023-12-20T10:40:34;101527.31;;;5.56;100.00
74045;BME280;62389;51.412;5.436;2023-12-20T10:43:00;101516.06;;;5.57;100.00
74045;BME280;62389;51.412;5.436;2023-12-20T10:45:27;101506.53;;;5.58;100.00
74045;BME280;62389;51.412;5.436;2023-12-20T10:47:52;101508.25;;;5.59;100.00
74045;BME280;62389;51.412;5.436;2023-12-20T10:50:19;101506.50;;;5.61;100.00
74045;BME280;62389;51.412;5.436;2023-12-20T10:52:45;101503.91;;;5.62;100.00
74045;BME280;62389;51.412;5.436;2023-12-20T10:55:11;101496.91;;;5.67;100.00
74045;BME280;62389;51.412;5.436;2023-12-20T10:57:37;101496.91;;;5.67;100.00
74045;BME280;62389;51.412;5.436;2023-12-20T11:00:03;101490.84;;;5.68;100.00
74045;BME280;62389;51.412;5.436;2023-12-20T11:02:32;101488.25;;;5.68;100.00
74045;BME280;62389;51.412;5.436;2023-12-20T11:05:23;101484.75;;;5.69;100.00
74045;BME280;62389;51.412;5.436;2023-12-20T11:08:09;101482.13;;;5.71;100.00
74045;BME280;62389;51.412;5.436;2023-12-20T11:10:51;101479.53;;;5.72;100.00
74045;BME280;62389;51.412;5.436;2023-12-20T11:13:28;101479.50;;;5.74;100.00
74045;BME280;62389;51.412;5.436;2023-12-20T11:15:55;101486.41;;;5.75;100.00
74045;BME280;62389;51.412;5.436;2023-12-20T11:18:28;101487.28;;;5.74;100.00
74045;BME280;62389;51.412;5.436;2023-12-20T11:20:54;101482.06;;;5.76;100.00
74045;BME280;62389;51.412;5.436;2023-12-20T11:23:19;101475.13;;;5.76;100.00
74045;BME280;62389;51.412;5.436;2023-12-20T11:25:56;101477.75;;;5.76;100.00
74045;BME280;62389;51.412;5.436;2023-12-20T11:28:25;101474.25;;;5.77;100.00
74045;BME280;62389;51.412;5.436;2023-12-20T11:30:55;101476.81;;;5.80;100.00
74045;BME280;62389;51.412;5.436;2023-12-20T11:33:22;101466.41;;;5.82;100.00
74045;BME280;62389;51.412;5.436;2023-12-20T11:35:48;101456.88;;;5.84;100.00
74045;BME280;62389;51.412;5.436;2023-12-20T11:38:14;101450.81;;;5.85;100.00
74045;BME280;62389;51.412;5.436;2023-12-20T11:40:41;101452.50;;;5.87;100.00
74045;BME280;62389;51.412;5.436;2023-12-20T11:43:06;101438.69;;;5.85;100.00
74045;BME280;62389;51.412;5.436;2023-12-20T11:45:33;101441.28;;;5.85;100.00
74045;BME280;62389;51.412;5.436;2023-12-20T11:48:01;101436.09;;;5.84;100.00
74045;BME280;62389;51.412;5.436;2023-12-20T11:50:27;101441.31;;;5.82;100.00
74045;BME280;62389;51.412;5.436;2023-12-20T11:52:54;101443.03;;;5.82;100.00
74045;BME280;62389;51.412;5.436;2023-12-20T11:55:20;101444.78;;;5.83;100.00
74045;BME280;62389;51.412;5.436;2023-12-20T11:57:46;101448.22;;;5.82;100.00
74045;BME280;62389;51.412;5.436;2023-12-20T12:00:13;101437.84;;;5.83;100.00
74045;BME280;62389;51.412;5.436;2023-12-20T12:02:39;101438.72;;;5.82;100.00
74045;BME280;62389;51.412;5.436;2023-12-20T12:05:05;101432.66;;;5.82;100.00
74045;BME280;62389;51.412;5.436;2023-12-20T12:07:31;101438.81;;;5.78;100.00
74045;BME280;62389;51.412;5.436;2023-12-20T12:09:57;101419.75;;;5.77;100.00
74045;BME280;62389;51.412;5.436;2023-12-20T12:12:22;101418.03;;;5.76;100.00
74045;BME280;62389;51.412;5.436;2023-12-20T12:14:48;101402.50;;;5.75;100.00
74045;BME280;62389;51.412;5.436;2023-12-20T12:17:14;101404.22;;;5.74;100.00
74045;BME280;62389;51.412;5.436;2023-12-20T12:19:41;101401.56;;;5.77;100.00
74045;BME280;62389;51.412;5.436;2023-12-20T12:22:08;101399.88;;;5.76;100.00
74045;BME280;62389;51.412;5.436;2023-12-20T12:24:36;101399.88;;;5.78;100.00
74045;BME280;62389;51.412;5.436;2023-12-20T12:27:03;101384.22;;;5.81;100.00
74045;BME280;62389;51.412;5.436;2023-12-20T12:29:28;101405.84;;;5.81;100.00
74045;BME280;62389;51.412;5.436;2023-12-20T12:31:54;101405.81;;;5.84;100.00
74045;BME280;62389;51.412;5.436;2023-12-20T12:34:20;101398.84;;;5.86;100.00
74045;BME280;62389;51.412;5.436;2023-12-20T12:36:45;101408.38;;;5.87;100.00
74045;BME280;62389;51.412;5.436;2023-12-20T12:39:15;101403.97;;;5.91;100.00
74045;BME280;62389;51.412;5.436;2023-12-20T12:41:43;101399.59;;;5.96;100.00
74045;BME280;62389;51.412;5.436;2023-12-20T12:44:08;101395.19;;;6.01;100.00